Hlavní strana
METAR-TAF:

METAR-TAF

Letiště :

Letiště Adolfa Suáreze

Madrid, Španělsko

zeměpisná šířka: 40-27N, zeměpisná délka: 003-33W, výška: 609 m

Aktuální stav počasí

Zpráva byla vytvořena před 12 minutami, v 06:00 UTC
Severoseverozápadní vítr 3 kt
Teplota 11°C
Vlhkost vzduchu 100%
Tlak 1019 hPa
Viditelnost: 5000 m
Polojasno ve výšce 2500 ft
Oblačno až skoro zataženo ve výšce 4500 ft
kouřmo

METAR: LEMD 160600Z 33003KT 5000 BR SCT025 BKN045 11/11 Q1019 NOSIG

Čas: 07:12 (06:12 UTC)

Předpověď počasí

Zpráva byla vytvořena před 1 hodinou a 12 minutami, v 05:00 UTC
Předpověď platná od 16 v 06 UTC do 17 v 12 UTC
vítr z různých směrů 4 kt
Viditelnost 10 km a více
Polojasno ve výšce 4500 ft
Pravděpodobnost 30% :
Dočasný
od 16 v 10 UTC do 16 v 20 UTC
Polojasno ve výšce 3000 ft, Vertikální cumulus.
dešťové přeháňky

TAF: LEMD 160500Z 1606/1712 VRB04KT 9999 SCT045 TX18/1614Z TN09/1607Z PROB30 TEMPO 1610/1620 SHRA SCT030TCU

Stav a předpovědi počasí z více než 4 000 letišť (zprávy METAR a TAF).

Červené a žluté tečky na mapě představují dostupné meteorologické stanice.

Když kurzor umístíte na tečku, zobrazí se název stanice.

Pak kliknutím zobrazíte stav a předpověď počasí.

Chcete-li změnit mapu, kliknutím na zelené tlačítko se znaménkem +mapu přiblížíte, kliknutím na zelené tlačítko se znaménkem – mapu oddálíte a kliknutím na zelené šipky přejdete na sousední mapy.


METAR-TAF: